createdAt,value
2018-06-03T00:00:57.028Z,71.90
2018-06-03T00:03:25.354Z,72.20
2018-06-03T00:05:54.438Z,72.80
2018-06-03T00:08:22.736Z,72.80
2018-06-03T00:10:51.907Z,73.00
2018-06-03T00:13:20.413Z,73.00
2018-06-03T00:15:49.496Z,72.90
2018-06-03T00:18:18.539Z,72.80
2018-06-03T00:24:35.688Z,72.80
2018-06-03T00:27:06.106Z,72.70
2018-06-03T00:29:36.319Z,73.30
2018-06-03T00:32:06.450Z,73.30
2018-06-03T00:34:36.750Z,73.40
2018-06-03T00:37:06.788Z,73.50
2018-06-03T00:39:37.059Z,73.90
2018-06-03T00:42:07.303Z,74.10
2018-06-03T00:44:37.364Z,74.70
2018-06-03T00:47:07.561Z,75.30
2018-06-03T00:49:37.410Z,75.70
2018-06-03T00:52:07.358Z,75.90
2018-06-03T00:54:37.322Z,76.00
2018-06-03T00:57:12.619Z,77.40
2018-06-03T00:59:42.468Z,77.40
2018-06-03T01:02:12.683Z,77.00
2018-06-03T01:04:42.779Z,76.90
2018-06-03T01:07:13.001Z,77.60
2018-06-03T01:09:43.304Z,77.80
2018-06-03T01:12:13.563Z,77.50
2018-06-03T01:14:43.633Z,77.50
2018-06-03T01:17:13.563Z,77.80
2018-06-03T01:19:43.683Z,78.10
2018-06-03T01:22:13.854Z,78.10
2018-06-03T01:24:44.408Z,78.00
2018-06-03T01:27:14.659Z,78.90
2018-06-03T01:29:44.765Z,78.10
2018-06-03T01:32:14.685Z,78.50
2018-06-03T01:34:45.129Z,78.70
2018-06-03T01:37:15.227Z,78.70
2018-06-03T01:39:45.733Z,78.80
2018-06-03T01:42:15.997Z,78.80
2018-06-03T01:44:45.928Z,78.70
2018-06-03T01:47:16.083Z,78.50
2018-06-03T01:49:46.040Z,78.70
2018-06-03T01:52:16.198Z,78.90
2018-06-03T01:54:46.284Z,78.60
2018-06-03T01:57:16.314Z,78.30
2018-06-03T01:59:46.190Z,78.40
2018-06-03T02:02:16.374Z,78.90
2018-06-03T02:04:47.230Z,79.20
2018-06-03T02:07:17.786Z,79.00
2018-06-03T02:09:48.474Z,78.70
2018-06-03T02:12:19.103Z,78.60
2018-06-03T02:14:49.678Z,78.50
2018-06-03T02:20:16.974Z,78.40
2018-06-03T02:22:47.250Z,78.30
2018-06-03T02:25:17.368Z,78.30
2018-06-03T02:27:47.350Z,79.00
2018-06-03T02:32:47.000Z,80.30
2018-06-03T02:35:17.095Z,79.80
2018-06-03T02:37:47.501Z,79.20
2018-06-03T02:40:17.766Z,80.30
2018-06-03T02:42:47.807Z,81.40
2018-06-03T02:45:17.593Z,81.30
2018-06-03T02:47:47.714Z,80.30
2018-06-03T02:50:17.970Z,80.70
2018-06-03T02:52:47.870Z,78.90
2018-06-03T02:55:17.923Z,76.80
2018-06-03T02:57:47.878Z,75.70
2018-06-03T03:00:18.098Z,77.10
2018-06-03T03:02:48.405Z,76.40
2018-06-03T03:05:18.590Z,76.60
2018-06-03T03:07:48.699Z,76.90
2018-06-03T03:10:21.831Z,76.90
2018-06-03T03:12:51.988Z,76.20
2018-06-03T03:15:22.191Z,76.60
2018-06-03T03:17:52.519Z,77.10
2018-06-03T03:20:22.243Z,76.70
2018-06-03T03:22:52.088Z,76.00
2018-06-03T03:25:22.144Z,75.90
2018-06-03T03:27:52.259Z,75.20
2018-06-03T03:30:22.378Z,75.60
2018-06-03T03:32:52.574Z,75.70
2018-06-03T03:35:22.753Z,75.80
2018-06-03T03:37:52.787Z,75.80
2018-06-03T03:40:22.723Z,75.30
2018-06-03T03:42:52.774Z,76.20
2018-06-03T03:45:22.628Z,75.90
2018-06-03T03:47:52.778Z,75.60
2018-06-03T03:50:23.115Z,75.40
2018-06-03T03:52:52.963Z,74.80
2018-06-03T03:55:23.223Z,74.70
2018-06-03T03:57:53.703Z,74.50
2018-06-03T04:00:24.867Z,74.20
2018-06-03T04:02:55.175Z,74.20
2018-06-03T04:05:25.754Z,74.20
2018-06-03T04:07:56.739Z,74.00
2018-06-03T04:10:27.564Z,73.70
2018-06-03T04:12:58.640Z,73.70
2018-06-03T04:15:29.292Z,73.40
2018-06-03T04:17:59.606Z,73.30
2018-06-03T04:20:30.269Z,73.50
2018-06-03T04:23:01.378Z,73.70
2018-06-03T04:25:31.938Z,73.70
2018-06-03T04:28:02.733Z,73.90
2018-06-03T04:30:33.488Z,73.80
2018-06-03T04:33:04.219Z,73.70
2018-06-03T04:38:04.609Z,73.80
2018-06-03T04:40:34.718Z,74.00
2018-06-03T04:43:04.635Z,73.90
2018-06-03T04:45:34.461Z,73.70
2018-06-03T04:48:04.449Z,73.90
2018-06-03T04:50:34.588Z,74.40
2018-06-03T04:53:04.751Z,74.00
2018-06-03T04:55:34.889Z,73.80
2018-06-03T04:58:05.176Z,73.80
2018-06-03T05:00:35.304Z,73.50
2018-06-03T05:03:05.541Z,73.90
2018-06-03T05:05:35.435Z,74.30
2018-06-03T05:08:05.298Z,74.70
2018-06-03T05:10:35.250Z,74.70
2018-06-03T05:13:05.438Z,74.10
2018-06-03T05:15:35.543Z,73.30
2018-06-03T05:18:05.723Z,73.70
2018-06-03T05:20:36.007Z,74.80
2018-06-03T05:23:06.114Z,73.60
2018-06-03T05:25:36.354Z,74.60
2018-06-03T05:28:06.505Z,74.50
2018-06-03T05:30:36.543Z,74.40
2018-06-03T05:33:07.060Z,73.40
2018-06-03T05:35:37.017Z,72.00
2018-06-03T05:38:07.249Z,72.00
2018-06-03T05:40:37.549Z,72.00
2018-06-03T05:43:07.415Z,72.50
2018-06-03T05:45:37.841Z,73.10
2018-06-03T05:48:07.700Z,73.90
2018-06-03T05:50:38.186Z,73.40
2018-06-03T05:53:08.425Z,73.10
2018-06-03T05:55:38.705Z,73.40
2018-06-03T05:58:08.944Z,73.70
2018-06-03T06:00:39.141Z,73.60
2018-06-03T06:03:09.716Z,73.60
2018-06-03T06:05:39.654Z,73.30
2018-06-03T06:08:09.668Z,72.80
2018-06-03T06:10:39.791Z,72.70
2018-06-03T06:13:09.995Z,72.70
2018-06-03T06:15:40.480Z,72.60
2018-06-03T06:18:10.445Z,71.40
2018-06-03T06:20:40.481Z,71.30
2018-06-03T06:23:10.822Z,70.80
2018-06-03T06:25:41.018Z,72.00
2018-06-03T06:28:11.157Z,71.40
2018-06-03T06:30:41.088Z,71.60
2018-06-03T06:35:40.836Z,71.30
2018-06-03T06:38:10.979Z,71.30
2018-06-03T06:40:41.361Z,71.00
2018-06-03T06:45:41.445Z,71.90
2018-06-03T06:48:11.922Z,72.30
2018-06-03T06:50:41.905Z,71.80
2018-06-03T06:53:12.116Z,71.50
2018-06-03T06:55:42.396Z,71.80
2018-06-03T06:58:12.521Z,71.20
2018-06-03T07:00:42.975Z,71.10
2018-06-03T07:03:12.949Z,71.30
2018-06-03T07:05:43.173Z,72.00
2018-06-03T07:08:13.146Z,73.30
2018-06-03T07:10:43.454Z,73.60
2018-06-03T07:13:13.750Z,72.80
2018-06-03T07:15:43.865Z,72.90
2018-06-03T07:18:14.149Z,73.30
2018-06-03T07:20:44.282Z,72.90
2018-06-03T07:23:14.598Z,72.10
2018-06-03T07:25:44.456Z,71.50
2018-06-03T07:28:14.858Z,70.70
2018-06-03T07:30:44.847Z,70.50
2018-06-03T07:33:14.838Z,70.00
2018-06-03T07:35:45.013Z,69.50
2018-06-03T07:38:14.939Z,69.10
2018-06-03T07:40:45.016Z,69.30
2018-06-03T07:43:15.180Z,68.50
2018-06-03T07:45:45.379Z,69.00
2018-06-03T07:48:15.534Z,72.00
2018-06-03T07:50:45.431Z,70.00
2018-06-03T07:53:15.097Z,68.20
2018-06-03T07:55:45.118Z,66.30
2018-06-03T07:58:15.401Z,65.60
2018-06-03T08:00:45.727Z,65.00
2018-06-03T08:03:16.035Z,63.80
2018-06-03T08:05:46.052Z,62.20
2018-06-03T08:08:16.316Z,63.40
2018-06-03T08:10:46.364Z,63.20
2018-06-03T08:13:16.556Z,63.10
2018-06-03T08:15:46.888Z,61.90
2018-06-03T08:18:17.030Z,61.50
2018-06-03T08:20:47.010Z,61.20
2018-06-03T08:23:17.176Z,58.10
2018-06-03T08:25:47.619Z,62.70
2018-06-03T08:28:18.000Z,58.80
2018-06-03T08:30:47.879Z,59.00
2018-06-03T08:33:18.113Z,62.10
2018-06-03T08:35:48.640Z,61.50
2018-06-03T08:38:19.447Z,58.80
2018-06-03T08:40:50.520Z,59.80
2018-06-03T08:43:20.992Z,57.50
2018-06-03T08:53:22.500Z,59.70
2018-06-03T08:55:52.668Z,60.20
2018-06-03T08:58:22.795Z,61.10
2018-06-03T09:00:52.790Z,60.40
2018-06-03T09:03:23.282Z,59.70
2018-06-03T09:05:53.515Z,59.30
2018-06-03T09:08:23.571Z,58.40
2018-06-03T09:10:53.398Z,57.90
2018-06-03T09:13:23.371Z,57.70
2018-06-03T09:15:53.572Z,57.00
2018-06-03T09:18:23.637Z,57.90
2018-06-03T09:20:53.860Z,56.60
2018-06-03T09:23:24.081Z,56.80
2018-06-03T09:25:54.253Z,57.60
2018-06-03T09:28:24.299Z,57.00
2018-06-03T09:30:59.538Z,58.20
2018-06-03T09:33:29.792Z,56.20
2018-06-03T09:35:59.813Z,58.80
2018-06-03T09:38:29.686Z,59.50
2018-06-03T09:40:59.870Z,58.40
2018-06-03T09:43:30.301Z,57.00
2018-06-03T09:46:00.341Z,56.40
2018-06-03T09:48:30.823Z,57.40
2018-06-03T09:51:00.915Z,57.50
2018-06-03T09:53:31.160Z,57.80
2018-06-03T09:56:01.405Z,57.20
2018-06-03T09:58:31.683Z,57.40
2018-06-03T10:01:01.861Z,56.90
2018-06-03T10:03:31.984Z,56.80
2018-06-03T10:06:02.154Z,56.10
2018-06-03T10:08:32.291Z,57.70
2018-06-03T10:11:02.650Z,57.40
2018-06-03T10:13:32.741Z,57.00
2018-06-03T10:16:03.067Z,54.70
2018-06-03T10:18:33.156Z,55.20
2018-06-03T10:21:03.357Z,55.20
2018-06-03T10:23:33.701Z,55.90
2018-06-03T10:26:03.907Z,55.80
2018-06-03T10:31:04.293Z,56.90
2018-06-03T10:33:34.494Z,57.50
2018-06-03T10:36:04.983Z,57.20
2018-06-03T10:38:35.644Z,55.30
2018-06-03T10:41:05.906Z,56.10
2018-06-03T10:43:36.005Z,56.00
2018-06-03T10:46:06.284Z,54.60
2018-06-03T10:48:36.507Z,54.70
2018-06-03T10:51:06.651Z,54.80
2018-06-03T10:53:36.710Z,57.10
2018-06-03T10:56:07.100Z,54.80
2018-06-03T10:58:37.335Z,54.70
2018-06-03T11:01:07.466Z,55.50
2018-06-03T11:03:37.510Z,55.70
2018-06-03T11:06:07.988Z,53.60
2018-06-03T11:08:38.165Z,54.90
2018-06-03T11:20:18.238Z,54.40
2018-06-03T11:22:48.449Z,54.60
2018-06-03T11:25:18.732Z,52.90
2018-06-03T11:27:48.857Z,52.40
2018-06-03T11:30:19.103Z,52.10
2018-06-03T11:32:49.342Z,50.80
2018-06-03T11:35:19.567Z,52.30
2018-06-03T11:37:49.656Z,51.10
2018-06-03T11:40:19.743Z,50.60
2018-06-03T11:42:49.888Z,50.60
2018-06-03T11:45:20.191Z,50.60
2018-06-03T11:47:50.592Z,50.30
2018-06-03T11:50:20.733Z,50.30
2018-06-03T11:52:50.910Z,49.90
2018-06-03T11:55:21.008Z,49.90
2018-06-03T11:58:42.882Z,49.60
2018-06-03T12:01:13.323Z,51.20
2018-06-03T12:03:43.378Z,52.00
2018-06-03T12:06:13.726Z,52.80
2018-06-03T12:08:44.047Z,53.10
2018-06-03T12:11:14.028Z,53.00
2018-06-03T12:13:44.136Z,52.80
2018-06-03T12:16:14.304Z,52.60
2018-06-03T12:18:44.471Z,51.80
2018-06-03T12:21:14.886Z,52.90
2018-06-03T12:23:44.913Z,53.40
2018-06-03T12:26:15.344Z,53.10
2018-06-03T12:28:45.545Z,52.60
2018-06-03T12:31:15.681Z,52.90
2018-06-03T12:33:45.778Z,52.90
2018-06-03T12:36:15.842Z,51.80
2018-06-03T12:38:46.138Z,52.30
2018-06-03T12:41:16.249Z,52.20
2018-06-03T12:43:46.741Z,51.70
2018-06-03T12:46:16.890Z,52.20
2018-06-03T12:48:47.486Z,52.30
2018-06-03T12:51:17.997Z,52.50
2018-06-03T12:53:48.191Z,52.10
2018-06-03T12:56:18.474Z,50.90
2018-06-03T12:58:48.659Z,50.40
2018-06-03T13:01:18.922Z,50.00
2018-06-03T13:03:48.962Z,49.50
2018-06-03T13:06:19.093Z,49.30
2018-06-03T13:08:49.347Z,48.60
2018-06-03T13:11:19.604Z,48.60
2018-06-03T13:13:49.766Z,48.90
2018-06-03T13:16:20.126Z,47.60
2018-06-03T13:18:50.303Z,47.50
2018-06-03T13:21:20.353Z,47.50
2018-06-03T13:23:50.662Z,47.60
2018-06-03T13:26:20.889Z,47.60
2018-06-03T13:28:51.404Z,46.50
2018-06-03T13:31:22.043Z,47.00
2018-06-03T13:33:51.944Z,46.70
2018-06-03T13:36:22.531Z,46.80
2018-06-03T13:38:52.298Z,48.20
2018-06-03T13:41:22.497Z,48.70
2018-06-03T13:43:52.568Z,50.90
2018-06-03T13:46:22.844Z,50.20
2018-06-03T13:48:53.463Z,50.60
2018-06-03T13:51:23.656Z,49.50
2018-06-03T13:53:53.917Z,49.70
2018-06-03T13:56:24.155Z,49.80
2018-06-03T13:58:54.295Z,49.20
2018-06-03T14:01:24.531Z,49.20
2018-06-03T14:03:54.818Z,48.90
2018-06-03T14:06:24.865Z,50.80
2018-06-03T14:08:54.721Z,50.60
2018-06-03T14:11:25.196Z,50.10
2018-06-03T14:13:55.397Z,49.70
2018-06-03T14:16:25.668Z,49.60
2018-06-03T14:18:55.737Z,49.50
2018-06-03T14:21:25.757Z,48.90
2018-06-03T14:23:56.171Z,48.70
2018-06-03T14:26:26.453Z,47.10
2018-06-03T14:28:57.422Z,45.50
2018-06-03T14:31:27.738Z,45.50
2018-06-03T14:33:57.612Z,44.40
2018-06-03T14:36:28.100Z,42.70
2018-06-03T14:38:58.751Z,43.70
2018-06-03T14:41:29.646Z,43.20
2018-06-03T14:44:00.286Z,42.00
2018-06-03T14:46:30.910Z,41.80
2018-06-03T14:49:01.912Z,42.60
2018-06-03T14:51:32.478Z,42.30
2018-06-03T14:54:03.688Z,41.60
2018-06-03T14:56:33.667Z,41.10
2018-06-03T14:59:04.770Z,40.40
2018-06-03T15:01:35.937Z,40.80
2018-06-03T15:04:06.029Z,40.80
2018-06-03T15:06:36.741Z,40.50
2018-06-03T15:09:09.107Z,40.30
2018-06-03T15:11:39.720Z,40.70
2018-06-03T15:14:09.980Z,39.10
2018-06-03T15:16:40.127Z,38.80
2018-06-03T15:19:10.291Z,39.10
2018-06-03T15:21:40.449Z,38.70
2018-06-03T15:24:10.621Z,38.80
2018-06-03T15:26:41.762Z,38.70
2018-06-03T15:29:12.913Z,37.90
2018-06-03T15:31:43.166Z,38.80
2018-06-03T15:34:14.941Z,38.80
2018-06-03T15:36:44.963Z,37.50
2018-06-03T15:41:45.948Z,38.90
2018-06-03T15:44:16.354Z,39.70
2018-06-03T15:46:46.796Z,39.10
2018-06-03T15:49:17.441Z,37.60
2018-06-03T15:51:47.809Z,37.30
2018-06-03T15:54:18.390Z,39.00
2018-06-03T15:56:49.325Z,38.20
2018-06-03T15:59:19.363Z,38.20
2018-06-03T16:01:49.483Z,38.70
2018-06-03T16:04:20.490Z,38.80
2018-06-03T16:06:50.811Z,38.90
2018-06-03T16:09:21.915Z,37.70
2018-06-03T16:11:52.320Z,37.00
2018-06-03T16:14:23.400Z,35.90
2018-06-03T16:16:53.647Z,34.50
2018-06-03T16:19:24.897Z,35.20
2018-06-03T16:26:56.284Z,35.70
2018-06-03T16:29:27.505Z,35.70
2018-06-03T16:31:58.003Z,34.90
2018-06-03T16:34:29.577Z,34.10
2018-06-03T16:36:59.964Z,33.80
2018-06-03T16:39:30.112Z,33.10
2018-06-03T16:44:30.909Z,32.50
2018-06-03T16:47:01.820Z,32.20
2018-06-03T16:49:32.631Z,31.80
2018-06-03T16:52:03.025Z,31.90
2018-06-03T16:57:04.362Z,32.20
2018-06-03T16:59:35.129Z,32.00
2018-06-03T17:02:05.959Z,31.80
2018-06-03T17:04:36.944Z,31.80
2018-06-03T17:07:08.154Z,32.30
2018-06-03T17:09:38.357Z,32.50
2018-06-03T17:12:08.615Z,32.50
2018-06-03T17:14:38.897Z,32.70
2018-06-03T17:17:09.125Z,32.50
2018-06-03T17:19:40.147Z,32.80
2018-06-03T17:22:10.491Z,32.40
2018-06-03T17:24:41.509Z,32.50
2018-06-03T17:27:11.825Z,32.40
2018-06-03T17:29:42.106Z,32.30
2018-06-03T17:32:12.259Z,31.60
2018-06-03T17:34:42.674Z,32.10
2018-06-03T17:37:12.723Z,32.50
2018-06-03T17:39:42.733Z,32.00
2018-06-03T17:42:12.898Z,31.60
2018-06-03T17:44:43.350Z,32.20
2018-06-03T17:47:13.706Z,32.60
2018-06-03T17:49:44.133Z,32.60
2018-06-03T17:52:14.447Z,32.80
2018-06-03T17:54:44.910Z,32.30
2018-06-03T17:57:15.296Z,32.30
2018-06-03T17:59:47.473Z,32.30
2018-06-03T18:02:17.605Z,32.50
2018-06-03T18:04:47.966Z,33.20
2018-06-03T18:07:18.368Z,33.40
2018-06-03T18:09:49.176Z,33.50
2018-06-03T18:12:19.309Z,33.60
2018-06-03T18:14:49.773Z,33.80
2018-06-03T18:17:20.197Z,33.70
2018-06-03T18:19:50.795Z,34.00
2018-06-03T18:22:20.966Z,34.30
2018-06-03T18:24:51.047Z,34.80
2018-06-03T18:27:21.266Z,35.30
2018-06-03T18:29:51.483Z,35.70
2018-06-03T18:32:21.774Z,36.20
2018-06-03T18:34:52.098Z,36.40
2018-06-03T18:37:22.068Z,36.80
2018-06-03T18:39:52.256Z,37.70
2018-06-03T18:42:22.845Z,38.20
2018-06-03T18:44:53.150Z,39.30
2018-06-03T18:47:23.910Z,40.20
2018-06-03T18:49:54.135Z,41.20
2018-06-03T18:52:24.656Z,41.40
2018-06-03T18:54:55.223Z,42.80
2018-06-03T18:57:25.601Z,42.70
2018-06-03T18:59:55.744Z,42.90
2018-06-03T19:02:25.906Z,43.70
2018-06-03T19:04:56.169Z,43.80
2018-06-03T19:07:27.467Z,43.80
2018-06-03T19:09:57.586Z,44.30
2018-06-03T19:12:27.861Z,44.50
2018-06-03T19:14:57.903Z,44.90
2018-06-03T19:17:28.179Z,44.40
2018-06-03T19:19:58.256Z,45.00
2018-06-03T19:22:28.514Z,45.30
2018-06-03T19:24:58.906Z,45.40
2018-06-03T19:27:29.199Z,45.40
2018-06-03T19:29:59.525Z,45.50
2018-06-03T19:32:29.758Z,45.50
2018-06-03T19:35:00.093Z,45.40
2018-06-03T19:37:30.293Z,45.60
2018-06-03T19:40:00.841Z,46.00
2018-06-03T19:42:30.990Z,46.20
2018-06-03T19:45:01.454Z,46.60
2018-06-03T19:47:31.434Z,46.80
2018-06-03T19:50:01.795Z,47.00
2018-06-03T19:52:31.732Z,46.90
2018-06-03T19:55:01.938Z,46.50
2018-06-03T19:57:32.159Z,47.30
2018-06-03T20:00:02.321Z,47.30
2018-06-03T20:02:32.563Z,47.30
2018-06-03T20:05:02.730Z,47.50
2018-06-03T20:07:32.962Z,47.80
2018-06-03T20:10:03.205Z,48.20
2018-06-03T20:12:33.345Z,48.00
2018-06-03T20:15:03.365Z,48.50
2018-06-03T20:17:34.283Z,48.80
2018-06-03T20:20:05.761Z,49.30
2018-06-03T20:22:36.049Z,48.70
2018-06-03T20:25:06.354Z,48.60
2018-06-03T20:27:36.512Z,48.90
2018-06-03T20:30:06.618Z,49.40
2018-06-03T20:32:36.842Z,50.00
2018-06-03T20:35:06.960Z,50.60
2018-06-03T20:37:37.238Z,51.10
2018-06-03T20:40:07.703Z,51.40
2018-06-03T20:42:37.823Z,52.10
2018-06-03T20:45:08.072Z,52.30
2018-06-03T20:47:38.120Z,52.50
2018-06-03T20:50:08.250Z,52.80
2018-06-03T20:52:38.485Z,53.20
2018-06-03T20:55:08.640Z,53.40
2018-06-03T20:57:38.655Z,53.70
2018-06-03T21:00:08.957Z,54.10
2018-06-03T21:02:39.075Z,54.10
2018-06-03T21:05:09.513Z,54.70
2018-06-03T21:07:39.516Z,55.00
2018-06-03T21:10:10.735Z,55.30
2018-06-03T21:12:41.118Z,55.30
2018-06-03T21:15:11.474Z,55.30
2018-06-03T21:17:42.263Z,55.10
2018-06-03T21:20:12.973Z,55.30
2018-06-03T21:22:43.599Z,55.40
2018-06-03T21:25:14.466Z,55.40
2018-06-03T21:27:44.934Z,55.70
2018-06-03T21:30:15.289Z,55.80
2018-06-03T21:32:45.505Z,56.20
2018-06-03T21:35:16.233Z,56.00
2018-06-03T21:37:46.806Z,56.40
2018-06-03T21:40:17.051Z,57.00
2018-06-03T21:42:47.856Z,57.20
2018-06-03T21:45:18.245Z,57.30
2018-06-03T21:47:49.177Z,57.20
2018-06-03T21:50:19.668Z,57.60
2018-06-03T21:52:50.421Z,57.80
2018-06-03T21:55:20.693Z,58.80
2018-06-03T21:57:51.170Z,58.00
2018-06-03T22:00:21.806Z,58.30
2018-06-03T22:05:22.749Z,58.90
2018-06-03T22:07:54.254Z,59.00
2018-06-03T22:10:24.227Z,59.00
2018-06-03T22:12:54.485Z,59.20
2018-06-03T22:15:25.549Z,59.50
2018-06-03T22:17:55.644Z,60.20
2018-06-03T22:20:26.005Z,59.60
2018-06-03T22:22:56.813Z,59.60
2018-06-03T22:25:27.001Z,60.20
2018-06-03T22:27:57.604Z,60.70
2018-06-03T22:30:28.338Z,60.80
2018-06-03T22:32:58.928Z,60.80
2018-06-03T22:37:59.380Z,60.50
2018-06-03T22:40:30.391Z,60.80
2018-06-03T22:43:00.663Z,61.10
2018-06-03T22:45:31.706Z,61.40
2018-06-03T22:48:02.035Z,61.50
2018-06-03T22:50:32.530Z,61.40
2018-06-03T22:53:03.400Z,61.10
2018-06-03T22:58:04.874Z,61.00
2018-06-03T23:00:35.397Z,60.20
2018-06-03T23:03:10.819Z,60.70
2018-06-03T23:05:40.950Z,60.70
2018-06-03T23:08:11.248Z,60.90
2018-06-03T23:10:41.290Z,61.20
2018-06-03T23:13:11.766Z,60.90
2018-06-03T23:15:41.518Z,60.80
2018-06-03T23:18:11.506Z,61.50
2018-06-03T23:20:41.374Z,62.10
2018-06-03T23:23:11.433Z,62.30
2018-06-03T23:25:41.771Z,62.70
2018-06-03T23:28:11.883Z,62.30
2018-06-03T23:30:42.059Z,62.00
2018-06-03T23:33:12.051Z,61.80
2018-06-03T23:35:42.137Z,61.50
2018-06-03T23:38:12.379Z,62.20
2018-06-03T23:40:42.293Z,61.80
2018-06-03T23:43:12.217Z,61.60
2018-06-03T23:48:12.720Z,61.40
2018-06-03T23:50:42.636Z,63.30
2018-06-03T23:53:12.489Z,62.60
2018-06-03T23:58:12.183Z,63.50
